Galileo — SX2040 — position and weather

sailwx.info

Track history (hours):
 
Tides and Currents Weather Stations Pressure Air Temp Water Temp Dewpoint Dewpoint Depression Visibility Wind Speed Wind Dir Waves Ship Positions

Galileo

Last reported at 2015-Aug-03 02:32 UTC. Time now 2015-Aug-03 02:42 UTC.
Position N 36°32' E 025°03'.

Length 40 m; draft 3 m.

Type: Passenger vessel. MMSI: 239299000.

Date/timePositionNaut miles runAvg speedWind from/ knotsBaromVisibWave heightAir tempDewpointWater temp
2015-Aug-03 02:32N 36°32' E 025°03'87 3.3
2015-Aug-02 00:07N 37°26' E 023°38'610.0
2015-Aug-01 23:33N 37°30' E 023°34'7 6.9
2015-Aug-01 22:34N 37°31' E 023°25'2 1.8
2015-Aug-01 21:33N 37°30' E 023°27'0 0.0
2015-Aug-01 20:34N 37°30' E 023°27'0 0.0
2015-Aug-01 19:33N 37°30' E 023°27'0 0.0
2015-Aug-01 18:33N 37°30' E 023°27'0 0.0
2015-Aug-01 17:33N 37°30' E 023°27'0 0.0
2015-Aug-01 16:33N 37°30' E 023°27'3 2.7
2015-Aug-01 15:33N 37°33' E 023°26'1010.0
2015-Aug-01 14:33N 37°41' E 023°33'10 9.9
2015-Aug-01 13:33N 37°51' E 023°36'6 5.7
2015-Aug-01 12:33N 37°56' E 023°39'0 0.0
2015-Aug-01 11:33N 37°56' E 023°39'0 0.0
2015-Aug-01 10:33N 37°56' E 023°39'0 0.0
2015-Aug-01 09:33N 37°56' E 023°39'0 0.0
2015-Aug-01 08:33N 37°56' E 023°39'0 0.0
2015-Aug-01 07:34N 37°56' E 023°39'0 0.0
2015-Aug-01 06:34N 37°56' E 023°39'0 0.0
2015-Aug-01 05:33N 37°56' E 023°39'0 0.0
2015-Aug-01 04:33N 37°56' E 023°39'0 0.0
2015-Aug-01 03:33N 37°56' E 023°39'0 0.0
2015-Aug-01 02:33N 37°56' E 023°39'0 0.0
2015-Aug-01 01:33N 37°56' E 023°39'0 0.0
2015-Aug-01 00:33N 37°56' E 023°39'0 0.0
2015-Jul-31 23:33N 37°56' E 023°39'0 0.0
2015-Jul-31 22:33N 37°56' E 023°39'0 0.0
2015-Jul-31 21:33N 37°56' E 023°39'0 0.0
2015-Jul-31 20:33N 37°56' E 023°39'0 0.0
2015-Jul-31 19:34N 37°56' E 023°39'0 0.0
2015-Jul-31 18:33N 37°56' E 023°39'0 0.0
2015-Jul-31 17:33N 37°56' E 023°39'0 0.0
2015-Jul-31 16:33N 37°56' E 023°39'4 3.9
2015-Jul-31 15:33N 37°53' E 023°41'10 9.7
2015-Jul-31 14:33N 37°44' E 023°47'49 4.5
2015-Jul-31 03:33N 37°31' E 024°47'9 8.8
2015-Jul-31 02:33N 37°29' E 024°58'2 2.3
2015-Jul-31 01:32N 37°27' E 024°57'0 0.0
2015-Jul-31 00:33N 37°27' E 024°57'0 0.0
2015-Jul-30 23:32N 37°27' E 024°57'0 0.0
2015-Jul-30 22:33N 37°27' E 024°57'0 0.0
2015-Jul-30 21:32N 37°27' E 024°57'0 0.0
2015-Jul-30 20:33N 37°27' E 024°57'0 0.0
2015-Jul-30 19:32N 37°27' E 024°57'0 0.0
2015-Jul-30 18:34N 37°27' E 024°57'0 0.0
2015-Jul-30 17:33N 37°27' E 024°57'0 0.0
2015-Jul-30 16:33N 37°27' E 024°57'0 0.0
2015-Jul-30 15:33N 37°27' E 024°57'0 0.0
2015-Jul-30 14:33N 37°27' E 024°57'0 0.0
2015-Jul-30 13:32N 37°27' E 024°57'0 0.0
2015-Jul-30 12:33N 37°27' E 024°57'0 0.0
2015-Jul-30 11:33N 37°27' E 024°57'0 0.0
2015-Jul-30 10:32N 37°27' E 024°57'0 0.0
2015-Jul-30 09:32N 37°27' E 024°57'2 1.9
2015-Jul-30 08:33N 37°25' E 024°59'0 0.0
2015-Jul-30 07:33N 37°25' E 024°59'0 0.1
2015-Jul-30 06:33N 37°25' E 024°59'9 8.8
2015-Jul-30 05:33N 37°27' E 025°10'8 8.1
2015-Jul-30 04:34N 37°28' E 025°20'0 0.0
2015-Jul-30 03:33N 37°28' E 025°20'0 0.0
2015-Jul-30 02:33N 37°28' E 025°20'0 0.0
2015-Jul-30 01:33N 37°28' E 025°20'0 0.0
2015-Jul-30 00:33N 37°28' E 025°20'0 0.0
2015-Jul-29 23:33N 37°28' E 025°20'0 0.0
2015-Jul-29 22:33N 37°28' E 025°20'0 0.0
2015-Jul-29 21:33N 37°28' E 025°20'0 0.0
2015-Jul-29 20:33N 37°28' E 025°20'0 0.0
2015-Jul-29 19:33N 37°28' E 025°20'0 0.0
2015-Jul-29 18:33N 37°28' E 025°20'0 0.0
2015-Jul-29 17:33N 37°28' E 025°20'0 0.0
2015-Jul-29 16:34N 37°28' E 025°20'0 0.0
2015-Jul-29 15:33N 37°28' E 025°20'0 0.0
2015-Jul-29 14:33N 37°28' E 025°20'0 0.0
2015-Jul-29 13:33N 37°28' E 025°20'0 0.0
2015-Jul-29 12:33N 37°28' E 025°20'0 0.0
2015-Jul-29 11:33N 37°28' E 025°20'0 0.0
2015-Jul-29 10:33N 37°28' E 025°20'0 0.0
2015-Jul-29 09:33N 37°28' E 025°20'0 0.0
2015-Jul-29 08:33N 37°28' E 025°20'0 0.0
2015-Jul-29 07:33N 37°28' E 025°20'0 0.0
2015-Jul-29 06:33N 37°28' E 025°20'0 0.0
2015-Jul-29 05:33N 37°28' E 025°20'1 0.9
2015-Jul-29 04:31N 37°28' E 025°18'8 8.3
2015-Jul-29 03:33N 37°20' E 025°16'10 9.9
2015-Jul-29 02:32N 37°11' E 025°10'6 5.2
2015-Jul-29 01:27N 37°05' E 025°09'0 0.0
2015-Jul-29 00:33N 37°05' E 025°09'0 0.0
2015-Jul-28 23:23N 37°05' E 025°09'0 0.0
2015-Jul-28 22:33N 37°05' E 025°09'0 0.0
2015-Jul-28 21:33N 37°05' E 025°09'0 0.0
2015-Jul-28 20:25N 37°05' E 025°09'0 0.0
2015-Jul-28 19:33N 37°05' E 025°09'0 0.0
2015-Jul-28 18:34N 37°05' E 025°09'0 0.0
2015-Jul-28 17:32N 37°05' E 025°09'0 0.0
2015-Jul-28 16:32N 37°05' E 025°09'0 0.0
2015-Jul-28 15:33N 37°05' E 025°09'0 0.0
2015-Jul-28 14:32N 37°05' E 025°09'0 0.0
2015-Jul-28 13:32N 37°05' E 025°09'0 0.0
2015-Jul-28 12:32N 37°05' E 025°09'0 0.0
2015-Jul-28 11:31N 37°05' E 025°09'0 0.0
2015-Jul-28 10:32N 37°05' E 025°09'0 0.0
2015-Jul-28 09:31N 37°05' E 025°09'1 0.6
2015-Jul-28 08:33N 37°06' E 025°09'0 0.0
2015-Jul-28 07:33N 37°06' E 025°09'6 6.3
2015-Jul-28 06:33N 37°02' E 025°02'28 8.6
2015-Jul-28 03:15N 36°37' E 025°17'710.1
2015-Jul-28 02:33N 36°30' E 025°20'7 6.9
2015-Jul-28 01:33N 36°25' E 025°26'0 0.0
2015-Jul-28 00:33N 36°25' E 025°26'0 0.0
2015-Jul-27 23:32N 36°25' E 025°26'0 0.0
2015-Jul-27 22:33N 36°25' E 025°26'0 0.0
2015-Jul-27 21:33N 36°25' E 025°26'0 0.0
2015-Jul-27 20:33N 36°25' E 025°26'0 0.0
2015-Jul-27 19:33N 36°25' E 025°26'0 0.0
2015-Jul-27 18:32N 36°25' E 025°26'0 0.0
2015-Jul-27 17:32N 36°25' E 025°26'0 0.0
2015-Jul-27 16:32N 36°25' E 025°26'0 0.0
2015-Jul-27 15:33N 36°25' E 025°26'0 0.0
2015-Jul-27 14:33N 36°25' E 025°26'0 0.0
2015-Jul-27 13:32N 36°25' E 025°26'0 0.0
2015-Jul-27 12:33N 36°25' E 025°26'0 0.0
2015-Jul-27 11:33N 36°25' E 025°26'0 0.0
2015-Jul-27 10:32N 36°25' E 025°26'0 0.0
2015-Jul-27 09:33N 36°25' E 025°26'0 0.0
2015-Jul-27 08:33N 36°25' E 025°26'0 0.0
2015-Jul-27 07:32N 36°25' E 025°26'0 0.0
2015-Jul-27 06:33N 36°25' E 025°26'0 0.0
2015-Jul-27 05:33N 36°25' E 025°26'4 4.3
2015-Jul-27 04:33N 36°28' E 025°21'9 8.6
2015-Jul-27 03:31N 36°32' E 025°12'13 5.7
2015-Jul-27 01:15N 36°37' E 024°57'0 0.0
2015-Jul-27 00:33N 36°37' E 024°57'0 0.0
2015-Jul-26 23:32N 36°37' E 024°57'0 0.0
2015-Jul-26 22:31N 36°37' E 024°57'0 0.0
2015-Jul-26 21:29N 36°37' E 024°57'0 0.0
2015-Jul-26 20:33N 36°37' E 024°57'0 0.0
2015-Jul-26 15:27N 36°37' E 024°57'0 0.0
2015-Jul-26 14:20N 36°37' E 024°57'0 0.0
2015-Jul-26 13:29N 36°37' E 024°57'0 0.1
2015-Jul-26 12:32N 36°37' E 024°57'21 3.2
2015-Jul-26 06:10N 36°50' E 024°37'6 9.8
2015-Jul-26 05:32N 36°54' E 024°31'32 9.8
2015-Jul-26 02:19N 37°11' E 023°58'11 9.7
2015-Jul-26 01:13N 37°18' E 023°48'6 9.1
2015-Jul-26 00:33N 37°22' E 023°42'10 9.9
2015-Jul-25 23:33N 37°28' E 023°32'5 4.5
2015-Jul-25 22:34N 37°30' E 023°27'0 0.0
2015-Jul-25 21:33N 37°30' E 023°27'0 0.0
2015-Jul-25 20:33N 37°30' E 023°27'0 0.0
2015-Jul-25 19:34N 37°30' E 023°27'0 0.0
2015-Jul-25 18:33N 37°30' E 023°27'0 0.0
2015-Jul-25 17:34N 37°30' E 023°27'0 0.0
2015-Jul-25 16:33N 37°30' E 023°27'3 2.9
2015-Jul-25 15:32N 37°33' E 023°26'10 9.7
2015-Jul-25 14:33N 37°41' E 023°33'10 9.6
2015-Jul-25 13:33N 37°50' E 023°36'6 6.1
2015-Jul-25 12:33N 37°56' E 023°39'0 0.0
2015-Jul-25 11:33N 37°56' E 023°39'0 0.0
2015-Jul-25 10:33N 37°56' E 023°39'0 0.0
2015-Jul-25 09:33N 37°56' E 023°39'0 0.0
2015-Jul-25 08:33N 37°56' E 023°39'0 0.0
2015-Jul-25 07:33N 37°56' E 023°39'0 0.0
2015-Jul-25 06:33N 37°56' E 023°39'0 0.0
2015-Jul-25 05:33N 37°56' E 023°39'0 0.0
2015-Jul-25 04:33N 37°56' E 023°39'0 0.0
2015-Jul-25 03:34N 37°56' E 023°39'0 0.0
2015-Jul-25 02:33N 37°56' E 023°39'0 0.0
2015-Jul-25 01:33N 37°56' E 023°39'0 0.0
2015-Jul-25 00:33N 37°56' E 023°39'0 0.0
2015-Jul-24 23:33N 37°56' E 023°39'0 0.0
2015-Jul-24 22:34N 37°56' E 023°39'0 0.0
2015-Jul-24 21:33N 37°56' E 023°39'0 0.0
2015-Jul-24 20:34N 37°56' E 023°39'0 0.0
2015-Jul-24 19:33N 37°56' E 023°39'0 0.0
2015-Jul-24 18:33N 37°56' E 023°39'0 0.0
2015-Jul-24 17:33N 37°56' E 023°39'0 0.0
2015-Jul-24 16:33N 37°56' E 023°39'3 2.9
2015-Jul-24 15:33N 37°53' E 023°41'1010.1
2015-Jul-24 14:33N 37°44' E 023°47'52 5.0
2015-Jul-24 04:04N 37°20' E 024°45'510.0
2015-Jul-24 03:33N 37°20' E 024°51'8 8.4
2015-Jul-24 02:33N 37°25' E 025°00'  
Track history (hours):
 
Tides and Currents Weather Stations Pressure Air Temp Water Temp Dewpoint Dewpoint Depression Visibility Wind Speed Wind Dir Waves Ship Positions

Galileo

Last reported at 2015-Aug-03 02:32 UTC. Time now 2015-Aug-03 02:42 UTC.
Position N 36°32' E 025°03'.

Length 40 m; draft 3 m.

Type: Passenger vessel. MMSI: 239299000.

Date/timePositionNaut miles runAvg speedWind from/ knotsBaromVisibWave heightAir tempDewpointWater temp
2015-Aug-03 02:32N 36°32' E 025°03'87 3.3
2015-Aug-02 00:07N 37°26' E 023°38'610.0
2015-Aug-01 23:33N 37°30' E 023°34'7 6.9
2015-Aug-01 22:34N 37°31' E 023°25'2 1.8
2015-Aug-01 21:33N 37°30' E 023°27'0 0.0
2015-Aug-01 20:34N 37°30' E 023°27'0 0.0
2015-Aug-01 19:33N 37°30' E 023°27'0 0.0
2015-Aug-01 18:33N 37°30' E 023°27'0 0.0
2015-Aug-01 17:33N 37°30' E 023°27'0 0.0
2015-Aug-01 16:33N 37°30' E 023°27'3 2.7
2015-Aug-01 15:33N 37°33' E 023°26'1010.0
2015-Aug-01 14:33N 37°41' E 023°33'10 9.9
2015-Aug-01 13:33N 37°51' E 023°36'6 5.7
2015-Aug-01 12:33N 37°56' E 023°39'0 0.0
2015-Aug-01 11:33N 37°56' E 023°39'0 0.0
2015-Aug-01 10:33N 37°56' E 023°39'0 0.0
2015-Aug-01 09:33N 37°56' E 023°39'0 0.0
2015-Aug-01 08:33N 37°56' E 023°39'0 0.0
2015-Aug-01 07:34N 37°56' E 023°39'0 0.0
2015-Aug-01 06:34N 37°56' E 023°39'0 0.0
2015-Aug-01 05:33N 37°56' E 023°39'0 0.0
2015-Aug-01 04:33N 37°56' E 023°39'0 0.0
2015-Aug-01 03:33N 37°56' E 023°39'0 0.0
2015-Aug-01 02:33N 37°56' E 023°39'0 0.0
2015-Aug-01 01:33N 37°56' E 023°39'0 0.0
2015-Aug-01 00:33N 37°56' E 023°39'0 0.0
2015-Jul-31 23:33N 37°56' E 023°39'0 0.0
2015-Jul-31 22:33N 37°56' E 023°39'0 0.0
2015-Jul-31 21:33N 37°56' E 023°39'0 0.0
2015-Jul-31 20:33N 37°56' E 023°39'0 0.0
2015-Jul-31 19:34N 37°56' E 023°39'0 0.0
2015-Jul-31 18:33N 37°56' E 023°39'0 0.0
2015-Jul-31 17:33N 37°56' E 023°39'0 0.0
2015-Jul-31 16:33N 37°56' E 023°39'4 3.9
2015-Jul-31 15:33N 37°53' E 023°41'10 9.7
2015-Jul-31 14:33N 37°44' E 023°47'49 4.5
2015-Jul-31 03:33N 37°31' E 024°47'9 8.8
2015-Jul-31 02:33N 37°29' E 024°58'2 2.3
2015-Jul-31 01:32N 37°27' E 024°57'0 0.0
2015-Jul-31 00:33N 37°27' E 024°57'0 0.0
2015-Jul-30 23:32N 37°27' E 024°57'0 0.0
2015-Jul-30 22:33N 37°27' E 024°57'0 0.0
2015-Jul-30 21:32N 37°27' E 024°57'0 0.0
2015-Jul-30 20:33N 37°27' E 024°57'0 0.0
2015-Jul-30 19:32N 37°27' E 024°57'0 0.0
2015-Jul-30 18:34N 37°27' E 024°57'0 0.0
2015-Jul-30 17:33N 37°27' E 024°57'0 0.0
2015-Jul-30 16:33N 37°27' E 024°57'0 0.0
2015-Jul-30 15:33N 37°27' E 024°57'0 0.0
2015-Jul-30 14:33N 37°27' E 024°57'0 0.0
2015-Jul-30 13:32N 37°27' E 024°57'0 0.0
2015-Jul-30 12:33N 37°27' E 024°57'0 0.0
2015-Jul-30 11:33N 37°27' E 024°57'0 0.0
2015-Jul-30 10:32N 37°27' E 024°57'0 0.0
2015-Jul-30 09:32N 37°27' E 024°57'2 1.9
2015-Jul-30 08:33N 37°25' E 024°59'0 0.0
2015-Jul-30 07:33N 37°25' E 024°59'0 0.1
2015-Jul-30 06:33N 37°25' E 024°59'9 8.8
2015-Jul-30 05:33N 37°27' E 025°10'8 8.1
2015-Jul-30 04:34N 37°28' E 025°20'0 0.0
2015-Jul-30 03:33N 37°28' E 025°20'0 0.0
2015-Jul-30 02:33N 37°28' E 025°20'0 0.0
2015-Jul-30 01:33N 37°28' E 025°20'0 0.0
2015-Jul-30 00:33N 37°28' E 025°20'0 0.0
2015-Jul-29 23:33N 37°28' E 025°20'0 0.0
2015-Jul-29 22:33N 37°28' E 025°20'0 0.0
2015-Jul-29 21:33N 37°28' E 025°20'0 0.0
2015-Jul-29 20:33N 37°28' E 025°20'0 0.0
2015-Jul-29 19:33N 37°28' E 025°20'0 0.0
2015-Jul-29 18:33N 37°28' E 025°20'0 0.0
2015-Jul-29 17:33N 37°28' E 025°20'0 0.0
2015-Jul-29 16:34N 37°28' E 025°20'0 0.0
2015-Jul-29 15:33N 37°28' E 025°20'0 0.0
2015-Jul-29 14:33N 37°28' E 025°20'0 0.0
2015-Jul-29 13:33N 37°28' E 025°20'0 0.0
2015-Jul-29 12:33N 37°28' E 025°20'0 0.0
2015-Jul-29 11:33N 37°28' E 025°20'0 0.0
2015-Jul-29 10:33N 37°28' E 025°20'0 0.0
2015-Jul-29 09:33N 37°28' E 025°20'0 0.0
2015-Jul-29 08:33N 37°28' E 025°20'0 0.0
2015-Jul-29 07:33N 37°28' E 025°20'0 0.0
2015-Jul-29 06:33N 37°28' E 025°20'0 0.0
2015-Jul-29 05:33N 37°28' E 025°20'1 0.9
2015-Jul-29 04:31N 37°28' E 025°18'8 8.3
2015-Jul-29 03:33N 37°20' E 025°16'10 9.9
2015-Jul-29 02:32N 37°11' E 025°10'6 5.2
2015-Jul-29 01:27N 37°05' E 025°09'0 0.0
2015-Jul-29 00:33N 37°05' E 025°09'0 0.0
2015-Jul-28 23:23N 37°05' E 025°09'0 0.0
2015-Jul-28 22:33N 37°05' E 025°09'0 0.0
2015-Jul-28 21:33N 37°05' E 025°09'0 0.0
2015-Jul-28 20:25N 37°05' E 025°09'0 0.0
2015-Jul-28 19:33N 37°05' E 025°09'0 0.0
2015-Jul-28 18:34N 37°05' E 025°09'0 0.0
2015-Jul-28 17:32N 37°05' E 025°09'0 0.0
2015-Jul-28 16:32N 37°05' E 025°09'0 0.0
2015-Jul-28 15:33N 37°05' E 025°09'0 0.0
2015-Jul-28 14:32N 37°05' E 025°09'0 0.0
2015-Jul-28 13:32N 37°05' E 025°09'0 0.0
2015-Jul-28 12:32N 37°05' E 025°09'0 0.0
2015-Jul-28 11:31N 37°05' E 025°09'0 0.0
2015-Jul-28 10:32N 37°05' E 025°09'0 0.0
2015-Jul-28 09:31N 37°05' E 025°09'1 0.6
2015-Jul-28 08:33N 37°06' E 025°09'0 0.0
2015-Jul-28 07:33N 37°06' E 025°09'6 6.3
2015-Jul-28 06:33N 37°02' E 025°02'28 8.6
2015-Jul-28 03:15N 36°37' E 025°17'710.1
2015-Jul-28 02:33N 36°30' E 025°20'7 6.9
2015-Jul-28 01:33N 36°25' E 025°26'0 0.0
2015-Jul-28 00:33N 36°25' E 025°26'0 0.0
2015-Jul-27 23:32N 36°25' E 025°26'0 0.0
2015-Jul-27 22:33N 36°25' E 025°26'0 0.0
2015-Jul-27 21:33N 36°25' E 025°26'0 0.0
2015-Jul-27 20:33N 36°25' E 025°26'0 0.0
2015-Jul-27 19:33N 36°25' E 025°26'0 0.0
2015-Jul-27 18:32N 36°25' E 025°26'0 0.0
2015-Jul-27 17:32N 36°25' E 025°26'0 0.0
2015-Jul-27 16:32N 36°25' E 025°26'0 0.0
2015-Jul-27 15:33N 36°25' E 025°26'0 0.0
2015-Jul-27 14:33N 36°25' E 025°26'0 0.0
2015-Jul-27 13:32N 36°25' E 025°26'0 0.0
2015-Jul-27 12:33N 36°25' E 025°26'0 0.0
2015-Jul-27 11:33N 36°25' E 025°26'0 0.0
2015-Jul-27 10:32N 36°25' E 025°26'0 0.0
2015-Jul-27 09:33N 36°25' E 025°26'0 0.0
2015-Jul-27 08:33N 36°25' E 025°26'0 0.0
2015-Jul-27 07:32N 36°25' E 025°26'0 0.0
2015-Jul-27 06:33N 36°25' E 025°26'0 0.0
2015-Jul-27 05:33N 36°25' E 025°26'4 4.3
2015-Jul-27 04:33N 36°28' E 025°21'9 8.6
2015-Jul-27 03:31N 36°32' E 025°12'13 5.7
2015-Jul-27 01:15N 36°37' E 024°57'0 0.0
2015-Jul-27 00:33N 36°37' E 024°57'0 0.0
2015-Jul-26 23:32N 36°37' E 024°57'0 0.0
2015-Jul-26 22:31N 36°37' E 024°57'0 0.0
2015-Jul-26 21:29N 36°37' E 024°57'0 0.0
2015-Jul-26 20:33N 36°37' E 024°57'0 0.0
2015-Jul-26 15:27N 36°37' E 024°57'0 0.0
2015-Jul-26 14:20N 36°37' E 024°57'0 0.0
2015-Jul-26 13:29N 36°37' E 024°57'0 0.1
2015-Jul-26 12:32N 36°37' E 024°57'21 3.2
2015-Jul-26 06:10N 36°50' E 024°37'6 9.8
2015-Jul-26 05:32N 36°54' E 024°31'32 9.8
2015-Jul-26 02:19N 37°11' E 023°58'11 9.7
2015-Jul-26 01:13N 37°18' E 023°48'6 9.1
2015-Jul-26 00:33N 37°22' E 023°42'10 9.9
2015-Jul-25 23:33N 37°28' E 023°32'5 4.5
2015-Jul-25 22:34N 37°30' E 023°27'0 0.0
2015-Jul-25 21:33N 37°30' E 023°27'0 0.0
2015-Jul-25 20:33N 37°30' E 023°27'0 0.0
2015-Jul-25 19:34N 37°30' E 023°27'0 0.0
2015-Jul-25 18:33N 37°30' E 023°27'0 0.0
2015-Jul-25 17:34N 37°30' E 023°27'0 0.0
2015-Jul-25 16:33N 37°30' E 023°27'3 2.9
2015-Jul-25 15:32N 37°33' E 023°26'10 9.7
2015-Jul-25 14:33N 37°41' E 023°33'10 9.6
2015-Jul-25 13:33N 37°50' E 023°36'6 6.1
2015-Jul-25 12:33N 37°56' E 023°39'0 0.0
2015-Jul-25 11:33N 37°56' E 023°39'0 0.0
2015-Jul-25 10:33N 37°56' E 023°39'0 0.0
2015-Jul-25 09:33N 37°56' E 023°39'0 0.0
2015-Jul-25 08:33N 37°56' E 023°39'0 0.0
2015-Jul-25 07:33N 37°56' E 023°39'0 0.0
2015-Jul-25 06:33N 37°56' E 023°39'0 0.0
2015-Jul-25 05:33N 37°56' E 023°39'0 0.0
2015-Jul-25 04:33N 37°56' E 023°39'0 0.0
2015-Jul-25 03:34N 37°56' E 023°39'0 0.0
2015-Jul-25 02:33N 37°56' E 023°39'0 0.0
2015-Jul-25 01:33N 37°56' E 023°39'0 0.0
2015-Jul-25 00:33N 37°56' E 023°39'0 0.0
2015-Jul-24 23:33N 37°56' E 023°39'0 0.0
2015-Jul-24 22:34N 37°56' E 023°39'0 0.0
2015-Jul-24 21:33N 37°56' E 023°39'0 0.0
2015-Jul-24 20:34N 37°56' E 023°39'0 0.0
2015-Jul-24 19:33N 37°56' E 023°39'0 0.0
2015-Jul-24 18:33N 37°56' E 023°39'0 0.0
2015-Jul-24 17:33N 37°56' E 023°39'0 0.0
2015-Jul-24 16:33N 37°56' E 023°39'3 2.9
2015-Jul-24 15:33N 37°53' E 023°41'1010.1
2015-Jul-24 14:33N 37°44' E 023°47'52 5.0
2015-Jul-24 04:04N 37°20' E 024°45'510.0
2015-Jul-24 03:33N 37°20' E 024°51'8 8.4
2015-Jul-24 02:33N 37°25' E 025°00'  

Dump ship's entire track history